Terminal Aerodrome Forecast
Issued by NWS

Home | Current Version | Previous Version | Text Only | Print | Product List | Glossary On
Versions: 1 2 3 4 5 6 7 8 9 10 11 12 13 14 15 16 17 18 19 20
537
FTUS43 KFGF 111823 AAA
TAFDVL
TAF AMD
KDVL 111823Z 1118/1218 VRB04KT P6SM -SN OVC035
     FM120100 36009KT P6SM OVC050
     FM120300 34009KT P6SM BKN120=

USA.gov is the U.S. government's official web portal to all federal, state and local government web resources and services.